Time;durP1;ratioP1;P1;durP2;ratioP2;P2;SDS_P1;SDS_P2;PMS_P1;PMS_P2;Temp;Humidity;BMP_temperature;BMP_pressure;BME280_temperature;BME280_humidity;BME280_pressure;Samples;Min_cycle;Max_cycle;Signal;HPM_P1;HPM_P2
2022/08/27 00:02:08;;;;;;;1.03;0.93;;;26.20;49.50;;;;;;4952821;28;21013;-67
2022/08/27 00:04:37;;;;;;;0.90;0.70;;;26.20;49.60;;;;;;4954658;28;20443;-67
2022/08/27 00:07:06;;;;;;;1.53;0.80;;;26.20;49.50;;;;;;4994485;28;20482;-66
2022/08/27 00:09:35;;;;;;;1.60;1.40;;;26.20;49.60;;;;;;4955765;28;20489;-67
2022/08/27 00:12:05;;;;;;;1.20;0.97;;;26.10;49.70;;;;;;4954820;28;20474;-67
2022/08/27 00:14:34;;;;;;;1.23;0.93;;;26.10;49.50;;;;;;4986993;28;20999;-67
2022/08/27 00:17:05;;;;;;;1.30;0.93;;;26.10;49.40;;;;;;4979811;28;20466;-68
2022/08/27 00:19:35;;;;;;;2.00;1.13;;;26.10;49.40;;;;;;4971277;28;20966;-67
2022/08/27 00:22:07;;;;;;;1.53;0.63;;;26.10;49.50;;;;;;4962773;28;20478;-68
2022/08/27 00:24:35;;;;;;;0.97;0.70;;;26.10;49.40;;;;;;4962972;28;20426;-68
2022/08/27 00:27:16;;;;;;;0.80;0.60;;;26.10;49.40;;;;;;4948943;28;21067;-67
2022/08/27 00:29:45;;;;;;;1.00;0.70;;;26.10;49.50;;;;;;4957161;28;20443;-67
2022/08/27 00:32:15;;;;;;;0.90;0.73;;;26.10;50.80;;;;;;4959629;28;20992;-69
2022/08/27 00:34:44;;;;;;;1.67;0.77;;;26.10;49.50;;;;;;4996901;28;20438;-68
2022/08/27 00:37:12;;;;;;;0.90;0.77;;;26.10;49.50;;;;;;4961320;28;20517;-67
2022/08/27 00:39:40;;;;;;;1.63;0.73;;;26.10;49.50;;;;;;4955186;28;20461;-67
2022/08/27 00:42:09;;;;;;;0.83;0.70;;;26.10;49.50;;;;;;4942379;28;20469;-67
2022/08/27 00:44:38;;;;;;;1.57;0.90;;;26.10;49.50;;;;;;4972142;28;20447;-68
2022/08/27 00:47:12;;;;;;;1.43;0.73;;;26.10;49.40;;;;;;4954319;28;20494;-67
2022/08/27 00:49:45;;;;;;;1.20;0.80;;;26.10;49.40;;;;;;4994520;28;20517;-67
2022/08/27 00:52:20;;;;;;;1.60;1.00;;;26.10;49.60;;;;;;4954350;28;20500;-68
2022/08/27 00:54:49;;;;;;;1.10;0.60;;;26.10;49.50;;;;;;4954623;28;20447;-67
2022/08/27 00:57:18;;;;;;;1.80;1.00;;;26.10;49.50;;;;;;4962244;28;20529;-67
2022/08/27 00:59:46;;;;;;;1.80;0.80;;;26.10;49.50;;;;;;4957803;28;20455;-67
2022/08/27 01:02:24;;;;;;;1.00;0.70;;;26.00;49.40;;;;;;4954101;28;20818;-67
2022/08/27 01:04:59;;;;;;;1.93;0.80;;;26.00;49.40;;;;;;4955011;28;20461;-67
2022/08/27 01:07:31;;;;;;;1.00;0.90;;;26.00;49.40;;;;;;4982435;28;20489;-68
2022/08/27 01:10:01;;;;;;;0.90;0.63;;;26.00;49.40;;;;;;4957965;28;20455;-72
2022/08/27 01:12:32;;;;;;;2.70;0.90;;;26.00;49.50;;;;;;4957899;28;20478;-72
2022/08/27 01:15:04;;;;;;;1.27;0.90;;;26.00;49.40;;;;;;4953677;28;20443;-71
2022/08/27 01:17:33;;;;;;;1.67;0.77;;;26.00;49.40;;;;;;4954091;28;20462;-68
2022/08/27 01:20:08;;;;;;;1.50;1.00;;;26.00;49.40;;;;;;4979326;28;20457;-67
2022/08/27 01:22:45;;;;;;;1.00;0.73;;;26.00;49.40;;;;;;4961394;28;20470;-68
2022/08/27 01:25:18;;;;;;;1.80;1.30;;;26.00;49.40;;;;;;4953963;28;20442;-68
2022/08/27 01:27:47;;;;;;;0.93;0.60;;;26.00;49.40;;;;;;4953487;28;20474;-67
2022/08/27 01:30:19;;;;;;;0.87;0.80;;;26.00;49.40;;;;;;4976966;28;20451;-68
2022/08/27 01:32:48;;;;;;;3.00;0.90;;;26.00;49.50;;;;;;4953160;28;20612;-68
2022/08/27 01:35:19;;;;;;;0.80;0.70;;;26.00;49.40;;;;;;4949903;28;20444;-67
2022/08/27 01:37:50;;;;;;;1.43;0.80;;;26.00;49.40;;;;;;4985164;28;20467;-67
2022/08/27 01:40:21;;;;;;;1.20;0.80;;;26.00;49.40;;;;;;4960143;28;20525;-68
2022/08/27 01:42:53;;;;;;;1.33;0.70;;;25.90;49.30;;;;;;4980125;23;20481;-66
2022/08/27 01:45:24;;;;;;;1.00;0.80;;;25.90;49.40;;;;;;4984367;28;20449;-67
2022/08/27 01:47:53;;;;;;;0.97;0.70;;;25.90;49.40;;;;;;4987671;28;20478;-67
2022/08/27 01:50:24;;;;;;;2.03;0.70;;;25.90;49.30;;;;;;4970093;28;20559;-66
2022/08/27 01:52:53;;;;;;;1.47;0.90;;;25.90;49.30;;;;;;4986958;28;20474;-67
2022/08/27 01:55:26;;;;;;;0.87;0.70;;;25.90;49.40;;;;;;4982906;28;20434;-66
2022/08/27 01:57:55;;;;;;;1.30;1.10;;;25.90;49.40;;;;;;4995919;28;20505;-66
2022/08/27 02:00:26;;;;;;;1.93;0.93;;;25.90;49.30;;;;;;4989180;28;20450;-66
2022/08/27 02:02:55;;;;;;;1.20;0.80;;;25.90;49.40;;;;;;4989698;28;20782;-66
2022/08/27 02:05:25;;;;;;;0.97;0.70;;;25.90;49.40;;;;;;4986487;28;20447;-66
2022/08/27 02:07:53;;;;;;;2.67;0.80;;;25.90;49.40;;;;;;4991868;28;20484;-66
2022/08/27 02:10:26;;;;;;;1.37;0.83;;;25.90;49.40;;;;;;4995956;28;20430;-66
2022/08/27 02:12:54;;;;;;;0.97;0.70;;;25.90;49.40;;;;;;4989570;28;20834;-66
2022/08/27 02:15:24;;;;;;;1.20;0.70;;;25.90;49.40;;;;;;4992241;28;20437;-66
2022/08/27 02:17:52;;;;;;;1.53;0.90;;;25.90;49.40;;;;;;4988956;28;20477;-66
2022/08/27 02:20:23;;;;;;;1.20;1.00;;;25.90;49.40;;;;;;4988454;28;20450;-64
2022/08/27 02:22:56;;;;;;;1.27;0.83;;;25.90;49.30;;;;;;4997182;28;20480;-66
2022/08/27 02:25:27;;;;;;;0.70;0.60;;;25.90;49.40;;;;;;4988773;28;20493;-66
2022/08/27 02:27:59;;;;;;;1.53;0.87;;;25.90;49.40;;;;;;4995832;28;20479;-66
2022/08/27 02:30:30;;;;;;;1.50;0.70;;;25.90;49.40;;;;;;4988472;28;20799;-66
2022/08/27 02:32:59;;;;;;;2.00;1.00;;;25.90;49.40;;;;;;4987538;28;21074;-66
2022/08/27 02:35:30;;;;;;;2.20;0.70;;;25.90;49.40;;;;;;4988607;28;20522;-66
2022/08/27 02:37:59;;;;;;;1.20;0.80;;;25.90;49.40;;;;;;4988746;28;20477;-66
2022/08/27 02:40:29;;;;;;;1.07;0.77;;;25.80;49.30;;;;;;4999069;28;20492;-66
2022/08/27 02:42:57;;;;;;;1.77;1.00;;;25.80;49.40;;;;;;4989337;28;20543;-66
2022/08/27 02:45:26;;;;;;;1.53;1.00;;;25.80;49.30;;;;;;4993667;28;20455;-66
2022/08/27 02:47:54;;;;;;;0.87;0.80;;;25.80;49.30;;;;;;4988506;28;20485;-66
2022/08/27 02:50:23;;;;;;;2.00;0.60;;;25.80;49.40;;;;;;4987271;28;20577;-66
2022/08/27 02:52:54;;;;;;;1.20;0.70;;;25.80;49.50;;;;;;4988265;28;20568;-66
2022/08/27 02:55:23;;;;;;;0.80;0.70;;;25.80;49.30;;;;;;4989500;28;20862;-66
2022/08/27 02:57:53;;;;;;;1.37;1.00;;;25.80;49.30;;;;;;4986674;28;20475;-65
2022/08/27 03:00:23;;;;;;;1.27;0.83;;;25.80;49.30;;;;;;4982034;28;20465;-66
2022/08/27 03:02:52;;;;;;;1.43;0.70;;;25.80;49.30;;;;;;4988916;28;20482;-66
2022/08/27 03:05:21;;;;;;;1.00;0.90;;;25.80;49.40;;;;;;4986623;28;20496;-66
2022/08/27 03:07:50;;;;;;;1.03;0.93;;;25.80;49.40;;;;;;4986801;28;20488;-66
2022/08/27 03:10:20;;;;;;;1.50;0.80;;;25.80;49.30;;;;;;4986869;28;20477;-66
2022/08/27 03:12:50;;;;;;;0.70;0.67;;;25.80;49.30;;;;;;4985964;28;20992;-66
2022/08/27 03:15:20;;;;;;;2.17;0.80;;;25.80;49.20;;;;;;4986206;28;20450;-66
2022/08/27 03:20:39;;;;;;;1.00;0.90;;;25.70;49.30;;;;;;4988204;28;20454;-66
2022/08/27 03:23:07;;;;;;;0.77;0.70;;;25.70;49.30;;;;;;4985158;28;20476;-66
2022/08/27 03:25:37;;;;;;;1.03;0.90;;;25.70;49.20;;;;;;4997671;28;20636;-66
2022/08/27 03:28:05;;;;;;;1.77;1.10;;;25.70;49.40;;;;;;4986431;28;20925;-66
2022/08/27 03:30:52;;;;;;;0.90;0.67;;;25.80;49.40;;;;;;4988100;28;20533;-66
2022/08/27 03:33:21;;;;;;;1.63;0.97;;;25.70;49.30;;;;;;4980386;28;20894;-66
2022/08/27 03:35:50;;;;;;;1.50;0.80;;;25.70;49.30;;;;;;4984696;28;20450;-66
2022/08/27 03:38:20;;;;;;;1.30;0.93;;;25.70;49.40;;;;;;4986698;28;20473;-66
2022/08/27 03:40:49;;;;;;;1.30;0.80;;;25.70;49.30;;;;;;4981041;28;20437;-66
2022/08/27 03:43:19;;;;;;;1.47;0.60;;;25.70;49.40;;;;;;4985284;28;20481;-67
2022/08/27 03:45:48;;;;;;;1.00;0.70;;;25.70;49.40;;;;;;4983832;28;20447;-66
2022/08/27 03:48:30;;;;;;;1.70;0.67;;;25.70;49.40;;;;;;4986157;28;20968;-66
2022/08/27 03:50:59;;;;;;;1.10;0.90;;;25.70;49.30;;;;;;4990903;28;20470;-66
2022/08/27 03:53:28;;;;;;;1.00;0.90;;;25.70;49.40;;;;;;4992567;28;20787;-66
2022/08/27 03:55:56;;;;;;;1.07;0.80;;;25.70;49.40;;;;;;4995277;28;20499;-66
2022/08/27 03:58:25;;;;;;;0.90;0.87;;;25.70;49.40;;;;;;4970546;28;20462;-66
2022/08/27 04:00:53;;;;;;;0.93;0.60;;;25.70;49.40;;;;;;4987397;28;20941;-66
2022/08/27 04:03:22;;;;;;;1.20;0.90;;;25.70;49.30;;;;;;4991328;28;20535;-66
2022/08/27 04:05:55;;;;;;;1.63;0.70;;;25.70;49.30;;;;;;4989009;28;20795;-65
2022/08/27 04:08:24;;;;;;;0.70;0.60;;;25.70;49.30;;;;;;4989891;28;21061;-65
2022/08/27 04:10:53;;;;;;;1.40;1.00;;;25.70;49.40;;;;;;4985644;28;20557;-66
2022/08/27 04:13:22;;;;;;;1.13;0.80;;;25.60;49.20;;;;;;4983804;28;20469;-66
2022/08/27 04:15:53;;;;;;;1.83;0.87;;;25.70;49.40;;;;;;4985979;28;20482;-64
2022/08/27 04:18:22;;;;;;;1.10;0.90;;;25.60;49.20;;;;;;4985461;28;21066;-66
2022/08/27 04:20:52;;;;;;;1.13;0.70;;;25.60;49.20;;;;;;4987156;28;20844;-66
2022/08/27 04:23:22;;;;;;;1.00;0.90;;;25.60;50.40;;;;;;4988853;28;20519;-66
2022/08/27 04:25:50;;;;;;;1.43;1.00;;;25.60;49.20;;;;;;4974483;28;20453;-66
2022/08/27 04:28:19;;;;;;;2.00;0.70;;;25.60;49.20;;;;;;4973636;28;20519;-65
2022/08/27 04:30:47;;;;;;;2.00;0.90;;;25.60;49.10;;;;;;4989429;28;20473;-66
2022/08/27 04:33:16;;;;;;;1.17;0.70;;;25.60;49.20;;;;;;4989191;28;20476;-66
2022/08/27 04:35:45;;;;;;;1.27;1.13;;;25.60;49.20;;;;;;4988401;28;20956;-66
2022/08/27 04:38:14;;;;;;;1.30;0.90;;;25.60;49.20;;;;;;4989627;28;20470;-65
2022/08/27 04:43:29;;;;;;;1.37;0.87;;;25.60;49.30;;;;;;4993432;28;20541;-66
2022/08/27 04:45:58;;;;;;;1.27;1.00;;;25.60;49.20;;;;;;4997761;28;20426;-66
2022/08/27 04:48:26;;;;;;;1.60;1.30;;;25.60;49.10;;;;;;5008472;28;20499;-65
2022/08/27 04:50:55;;;;;;;0.90;0.80;;;25.60;49.20;;;;;;4987444;28;20477;-66
2022/08/27 04:53:24;;;;;;;3.30;0.70;;;25.60;49.30;;;;;;4987516;28;20576;-66
2022/08/27 04:55:56;;;;;;;4.60;1.30;;;25.50;49.10;;;;;;4995603;28;20479;-66
2022/08/27 04:58:26;;;;;;;1.63;0.83;;;25.50;49.10;;;;;;4985638;28;20477;-65
2022/08/27 05:00:58;;;;;;;1.40;0.70;;;25.60;49.20;;;;;;4989515;28;20445;-66
2022/08/27 05:03:27;;;;;;;1.20;0.83;;;25.50;49.20;;;;;;4996179;28;21075;-66
2022/08/27 05:06:02;;;;;;;1.97;0.80;;;25.50;49.10;;;;;;4976872;28;20484;-66
2022/08/27 05:08:31;;;;;;;1.10;0.80;;;25.50;49.10;;;;;;4991781;28;20462;-66
2022/08/27 05:11:00;;;;;;;0.80;0.70;;;25.50;49.20;;;;;;4998490;28;20910;-66
2022/08/27 05:13:29;;;;;;;1.30;0.93;;;25.50;49.20;;;;;;4988024;28;20512;-65
2022/08/27 05:16:00;;;;;;;1.90;1.00;;;25.50;49.30;;;;;;4996214;28;20504;-66
2022/08/27 05:18:29;;;;;;;1.77;1.00;;;25.50;49.20;;;;;;4996700;28;20825;-66
2022/08/27 05:21:02;;;;;;;1.17;0.73;;;25.50;49.20;;;;;;4978099;28;20812;-66
2022/08/27 05:23:31;;;;;;;2.10;0.80;;;25.50;49.20;;;;;;4994870;28;21007;-66
2022/08/27 05:26:08;;;;;;;1.43;0.70;;;25.50;49.20;;;;;;4989260;28;20445;-66
2022/08/27 05:28:36;;;;;;;3.30;1.10;;;25.50;49.20;;;;;;4992155;28;20505;-66
2022/08/27 05:31:06;;;;;;;2.00;1.07;;;25.50;49.20;;;;;;4991440;28;20871;-66
2022/08/27 05:33:37;;;;;;;0.90;0.80;;;25.50;49.30;;;;;;4991137;28;20477;-66
2022/08/27 05:36:06;;;;;;;1.63;0.90;;;25.40;49.10;;;;;;4987059;28;20454;-66
2022/08/27 05:38:35;;;;;;;1.33;1.10;;;25.40;49.20;;;;;;4979889;28;20454;-65
2022/08/27 05:41:08;;;;;;;1.83;0.87;;;25.40;49.10;;;;;;4988574;28;20601;-65
2022/08/27 05:43:38;;;;;;;1.03;0.70;;;25.40;49.10;;;;;;4989233;28;20557;-66
2022/08/27 05:46:09;;;;;;;2.50;1.13;;;25.40;49.10;;;;;;4988519;28;20477;-66
2022/08/27 05:48:39;;;;;;;0.80;0.70;;;25.40;49.10;;;;;;4991476;28;20804;-65
2022/08/27 05:51:12;;;;;;;1.43;0.60;;;25.40;49.10;;;;;;4975927;28;20461;-64
2022/08/27 05:53:43;;;;;;;1.13;0.83;;;25.40;49.10;;;;;;4988034;28;20461;-65
2022/08/27 05:56:14;;;;;;;2.97;1.40;;;25.40;49.00;;;;;;4993095;28;20466;-65
2022/08/27 06:01:40;;;;;;;3.37;1.30;;;25.40;48.60;;;;;;4931091;28;20461;-64
2022/08/27 06:04:09;;;;;;;2.30;1.20;;;25.30;48.70;;;;;;4991560;28;20544;-65
2022/08/27 06:06:45;;;;;;;1.53;1.23;;;25.30;48.50;;;;;;4989187;28;20449;-66
2022/08/27 06:09:16;;;;;;;2.27;1.80;;;25.30;48.50;;;;;;4988134;28;20436;-65
2022/08/27 06:11:46;;;;;;;3.77;1.50;;;25.20;48.30;;;;;;4993589;28;20462;-66
2022/08/27 06:14:16;;;;;;;6.30;1.40;;;25.20;48.30;;;;;;5004138;28;20492;-65
2022/08/27 06:16:46;;;;;;;2.13;1.37;;;25.20;48.10;;;;;;4996275;28;20438;-66
2022/08/27 06:19:15;;;;;;;3.63;1.60;;;25.20;48.10;;;;;;4994500;28;20457;-65
2022/08/27 06:21:44;;;;;;;4.13;1.20;;;25.20;48.00;;;;;;4985464;28;20434;-65
2022/08/27 06:24:13;;;;;;;4.97;1.70;;;25.20;48.00;;;;;;5000038;28;20481;-66
2022/08/27 06:26:43;;;;;;;2.93;1.43;;;25.20;48.00;;;;;;4997084;28;20780;-66
2022/08/27 06:29:14;;;;;;;2.37;2.17;;;25.20;48.10;;;;;;4994655;28;20429;-66
2022/08/27 06:31:50;;;;;;;2.00;1.23;;;25.10;47.90;;;;;;5003095;28;20469;-64
2022/08/27 06:34:19;;;;;;;3.43;1.97;;;25.10;48.00;;;;;;5001326;28;20492;-66
2022/08/27 06:36:48;;;;;;;2.77;1.77;;;25.10;47.70;;;;;;4991451;28;20534;-66
2022/08/27 06:39:16;;;;;;;2.60;1.80;;;25.10;47.60;;;;;;4999363;28;20429;-65
2022/08/27 06:41:46;;;;;;;1.60;1.37;;;25.10;47.80;;;;;;4988842;28;20501;-65
2022/08/27 06:44:16;;;;;;;1.90;1.47;;;25.10;47.80;;;;;;4993904;28;20492;-65
2022/08/27 06:46:45;;;;;;;1.83;1.73;;;25.10;47.70;;;;;;4987909;28;21019;-65
2022/08/27 06:49:14;;;;;;;3.83;1.43;;;25.10;47.90;;;;;;5005706;28;20433;-65
2022/08/27 06:51:46;;;;;;;3.83;1.93;;;25.00;47.90;;;;;;4987747;28;20977;-64
2022/08/27 06:54:17;;;;;;;2.83;1.77;;;25.00;49.00;;;;;;4988619;28;20972;-66
2022/08/27 06:56:45;;;;;;;7.10;1.87;;;25.00;47.80;;;;;;4995862;28;20441;-65
2022/08/27 06:59:17;;;;;;;2.10;1.53;;;25.00;47.80;;;;;;4993199;28;21367;-66
2022/08/27 07:01:50;;;;;;;4.50;1.40;;;25.00;47.90;;;;;;4994213;28;20429;-66
2022/08/27 07:04:21;;;;;;;3.20;1.93;;;25.00;47.90;;;;;;4986194;28;20520;-65
2022/08/27 07:06:57;;;;;;;4.20;2.27;;;25.00;48.00;;;;;;4990995;28;20473;-66
2022/08/27 07:09:29;;;;;;;8.60;2.07;;;25.00;47.90;;;;;;4990682;28;20538;-66
2022/08/27 07:11:57;;;;;;;4.13;1.60;;;25.00;47.90;;;;;;4996525;28;20483;-66
2022/08/27 07:14:27;;;;;;;3.20;1.57;;;25.00;48.00;;;;;;4984350;28;21585;-66
2022/08/27 07:17:01;;;;;;;4.30;2.03;;;24.90;47.80;;;;;;5004581;28;20528;-66
2022/08/27 07:19:31;;;;;;;3.40;1.80;;;24.90;47.80;;;;;;4991568;28;20771;-64
2022/08/27 07:21:59;;;;;;;3.63;1.73;;;24.90;47.90;;;;;;4989669;28;20474;-65
2022/08/27 07:24:28;;;;;;;2.87;1.90;;;24.90;47.90;;;;;;4986609;28;20841;-65
2022/08/27 07:26:57;;;;;;;5.20;1.70;;;24.90;47.90;;;;;;4986289;28;21977;-64
2022/08/27 07:29:27;;;;;;;2.10;1.37;;;24.90;48.00;;;;;;4994163;28;20437;-64
2022/08/27 07:31:59;;;;;;;4.03;2.20;;;24.90;48.10;;;;;;4992868;28;20486;-65
2022/08/27 07:34:28;;;;;;;7.90;2.23;;;24.90;47.90;;;;;;4987079;28;20887;-65
2022/08/27 07:36:56;;;;;;;4.40;2.10;;;24.90;47.90;;;;;;4987824;28;20485;-65
2022/08/27 07:39:24;;;;;;;6.97;2.07;;;24.80;47.80;;;;;;5000198;28;20430;-65
2022/08/27 07:44:43;;;;;;;3.47;1.90;;;24.80;47.90;;;;;;4978759;28;20497;-71
2022/08/27 07:47:12;;;;;;;3.40;1.60;;;24.80;47.90;;;;;;4956666;28;20450;-71
2022/08/27 07:49:40;;;;;;;2.97;2.10;;;24.80;47.80;;;;;;4984914;28;20837;-71
2022/08/27 07:52:09;;;;;;;3.77;2.30;;;24.80;47.80;;;;;;4960258;28;20840;-71
2022/08/27 07:54:37;;;;;;;2.53;1.77;;;24.80;47.90;;;;;;4953119;28;20443;-71
2022/08/27 07:57:06;;;;;;;3.80;1.80;;;24.80;48.00;;;;;;4956345;28;20631;-71
2022/08/27 07:59:35;;;;;;;4.93;2.50;;;24.80;48.00;;;;;;4972644;28;20924;-71
2022/08/27 08:02:05;;;;;;;3.10;2.10;;;24.70;48.00;;;;;;4954446;28;20857;-71
2022/08/27 08:04:33;;;;;;;6.27;2.23;;;24.70;48.00;;;;;;4971758;28;20914;-71
2022/08/27 08:07:02;;;;;;;2.33;1.87;;;24.70;48.00;;;;;;4953707;28;20463;-71
2022/08/27 08:09:31;;;;;;;4.50;2.27;;;24.80;48.20;;;;;;4955604;28;20941;-71
2022/08/27 08:11:59;;;;;;;3.03;2.00;;;24.70;48.10;;;;;;4959927;28;20473;-71
2022/08/27 08:14:29;;;;;;;2.70;1.83;;;24.70;49.40;;;;;;4960548;28;20784;-71
2022/08/27 08:17:01;;;;;;;3.33;2.10;;;24.70;48.30;;;;;;4971849;28;20855;-71
2022/08/27 08:19:32;;;;;;;3.37;1.60;;;24.70;48.40;;;;;;4955679;28;20438;-71
2022/08/27 08:22:01;;;;;;;3.20;2.53;;;24.70;48.50;;;;;;4973719;28;20449;-71
2022/08/27 08:24:35;;;;;;;2.70;1.90;;;24.70;48.80;;;;;;4960180;28;20525;-71
2022/08/27 08:27:04;;;;;;;3.57;2.17;;;24.70;48.90;;;;;;4972549;28;20470;-71
2022/08/27 08:29:36;;;;;;;4.23;2.30;;;24.70;49.10;;;;;;4971227;28;20949;-71
2022/08/27 08:32:06;;;;;;;2.30;2.10;;;24.70;49.30;;;;;;4954994;28;20459;-71
2022/08/27 08:34:36;;;;;;;7.87;2.47;;;24.70;49.40;;;;;;4955060;28;20477;-71
2022/08/27 08:37:06;;;;;;;4.33;2.43;;;24.60;49.50;;;;;;4939019;28;20440;-71
2022/08/27 08:39:36;;;;;;;2.90;2.57;;;24.60;49.80;;;;;;4985399;28;20430;-71
2022/08/27 08:42:29;;;;;;;3.60;2.73;;;24.60;50.00;;;;;;4954111;28;20524;-71
2022/08/27 08:45:02;;;;;;;3.10;2.20;;;24.60;50.10;;;;;;4956488;28;20446;-71
2022/08/27 08:47:37;;;;;;;3.27;2.40;;;24.60;50.10;;;;;;4988156;28;20477;-71
2022/08/27 08:50:11;;;;;;;4.23;2.73;;;24.60;50.10;;;;;;4954185;28;20457;-71
2022/08/27 08:52:52;;;;;;;2.33;1.80;;;24.60;50.20;;;;;;4976489;28;20732;-71
2022/08/27 08:55:41;;;;;;;5.17;2.10;;;24.60;50.30;;;;;;4958653;28;20438;-71
2022/08/27 08:58:16;;;;;;;4.30;2.40;;;24.60;50.60;;;;;;4982282;28;20477;-71
2022/08/27 09:00:48;;;;;;;3.10;2.40;;;24.60;50.50;;;;;;4966819;28;21028;-71
2022/08/27 09:03:17;;;;;;;3.87;2.60;;;24.60;50.60;;;;;;4986728;28;20219;-72
2022/08/27 09:05:53;;;;;;;2.70;1.90;;;24.60;50.70;;;;;;4952280;28;20455;-72
2022/08/27 09:08:27;;;;;;;2.20;2.00;;;24.60;50.80;;;;;;4953013;28;20852;-71
2022/08/27 09:11:10;;;;;;;3.00;1.90;;;24.60;50.90;;;;;;4957739;28;20941;-71
2022/08/27 09:13:43;;;;;;;6.60;2.40;;;24.60;51.00;;;;;;4996670;28;21103;-72
2022/08/27 09:16:11;;;;;;;5.43;2.43;;;24.50;50.80;;;;;;4985653;28;20521;-71
2022/08/27 09:18:43;;;;;;;5.17;1.90;;;24.50;52.00;;;;;;4962526;28;21022;-73
2022/08/27 09:21:26;;;;;;;4.57;2.23;;;24.50;50.90;;;;;;4958843;28;20441;-71
2022/08/27 09:24:14;;;;;;;2.93;1.90;;;24.50;51.20;;;;;;4960551;28;20534;-71
2022/08/27 09:26:44;;;;;;;3.87;1.80;;;24.50;51.00;;;;;;4953859;28;20473;-73
2022/08/27 09:29:18;;;;;;;3.53;2.33;;;24.50;51.10;;;;;;4969219;28;20455;-73
2022/08/27 09:31:57;;;;;;;3.30;1.67;;;24.50;51.30;;;;;;4953660;28;20478;-72
2022/08/27 09:34:33;;;;;;;3.23;1.90;;;24.50;51.20;;;;;;4954325;28;20949;-72
2022/08/27 09:37:07;;;;;;;6.10;2.37;;;24.50;51.30;;;;;;4981500;28;20504;-72
2022/08/27 09:39:50;;;;;;;3.43;1.93;;;24.50;51.60;;;;;;4951147;28;20458;-73
2022/08/27 09:42:32;;;;;;;4.03;2.10;;;24.40;51.60;;;;;;4951620;28;20561;-73
2022/08/27 09:45:00;;;;;;;2.57;1.60;;;24.40;51.80;;;;;;4951807;28;20469;-73
2022/08/27 09:47:29;;;;;;;3.70;2.00;;;24.40;51.80;;;;;;4952241;28;20451;-73
2022/08/27 09:50:04;;;;;;;2.43;1.90;;;24.40;51.80;;;;;;4966542;28;20870;-73
2022/08/27 09:52:45;;;;;;;3.40;1.87;;;24.30;52.10;;;;;;4970729;28;20509;-73
2022/08/27 09:55:13;;;;;;;2.57;1.70;;;24.30;52.20;;;;;;4978331;28;20447;-73
2022/08/27 09:57:43;;;;;;;3.83;1.90;;;24.30;52.00;;;;;;4947948;28;20829;-73
2022/08/27 10:00:16;;;;;;;3.50;1.80;;;24.30;52.40;;;;;;4971734;28;20451;-73
2022/08/27 10:02:51;;;;;;;3.47;2.20;;;24.30;52.60;;;;;;4973444;28;20471;-71
2022/08/27 10:05:26;;;;;;;2.00;1.80;;;24.20;52.40;;;;;;4969664;28;20459;-71
2022/08/27 10:08:01;;;;;;;3.30;2.10;;;24.20;52.60;;;;;;4976877;28;20521;-71
2022/08/27 10:10:44;;;;;;;3.13;1.67;;;24.20;52.80;;;;;;4955201;28;20486;-71
2022/08/27 10:13:18;;;;;;;2.10;1.83;;;24.20;52.70;;;;;;4960320;28;20481;-71
2022/08/27 10:15:58;;;;;;;2.90;1.80;;;24.20;52.80;;;;;;4977709;28;20494;-71
2022/08/27 10:18:37;;;;;;;6.43;2.20;;;24.20;53.30;;;;;;4965643;28;21060;-71
2022/08/27 10:21:15;;;;;;;4.93;1.77;;;24.20;53.30;;;;;;4952140;28;20493;-71
2022/08/27 10:23:54;;;;;;;2.83;2.00;;;24.20;53.20;;;;;;4957104;28;20462;-70
2022/08/27 10:26:27;;;;;;;2.60;1.90;;;24.20;53.20;;;;;;4950823;28;20455;-71
2022/08/27 10:29:12;;;;;;;7.10;2.73;;;24.10;53.10;;;;;;4951106;28;20473;-70
2022/08/27 10:31:47;;;;;;;2.90;2.47;;;24.10;53.80;;;;;;4963745;28;20486;-70
2022/08/27 10:34:28;;;;;;;2.33;1.70;;;24.10;54.30;;;;;;4952299;28;20473;-70
2022/08/27 10:37:08;;;;;;;3.00;2.40;;;24.10;54.30;;;;;;4951846;28;20454;-72
2022/08/27 10:40:03;;;;;;;3.23;2.50;;;24.10;54.10;;;;;;4950130;28;20957;-72
2022/08/27 10:42:37;;;;;;;2.80;2.10;;;24.10;53.80;;;;;;4963531;28;20503;-72
2022/08/27 10:45:25;;;;;;;6.50;2.90;;;24.10;54.00;;;;;;4955827;28;20526;-72
2022/08/27 10:48:11;;;;;;;2.63;1.90;;;24.10;54.20;;;;;;4936664;28;20989;-72
2022/08/27 10:50:46;;;;;;;3.10;2.20;;;24.00;54.40;;;;;;4981083;28;20538;-72
2022/08/27 10:53:23;;;;;;;4.03;1.80;;;23.90;54.80;;;;;;4950284;28;21009;-70
2022/08/27 10:56:01;;;;;;;2.83;2.43;;;23.90;54.50;;;;;;4952273;28;20418;-70
2022/08/27 10:58:40;;;;;;;6.77;2.63;;;24.00;55.00;;;;;;4968195;28;21009;-70
2022/08/27 11:01:16;;;;;;;9.03;2.33;;;24.00;54.80;;;;;;4967141;28;20930;-70
2022/08/27 11:03:49;;;;;;;2.90;2.33;;;24.00;54.80;;;;;;4963047;28;20478;-70
2022/08/27 11:06:24;;;;;;;4.90;2.80;;;24.00;54.70;;;;;;4949737;28;20457;-71
2022/08/27 11:08:57;;;;;;;2.67;2.17;;;24.00;54.40;;;;;;4951916;28;20457;-70
2022/08/27 11:11:37;;;;;;;4.77;2.30;;;24.00;54.30;;;;;;4982626;28;20466;-71
2022/08/27 11:14:30;;;;;;;3.03;2.43;;;23.90;54.40;;;;;;4980936;28;20574;-70
2022/08/27 11:17:04;;;;;;;4.93;3.40;;;23.90;55.10;;;;;;4958916;28;20443;-70
2022/08/27 11:19:45;;;;;;;5.17;3.40;;;23.90;55.10;;;;;;4954027;28;20466;-70
2022/08/27 11:22:18;;;;;;;7.30;4.27;;;23.90;55.30;;;;;;4962244;28;20469;-72
2022/08/27 11:25:00;;;;;;;5.07;4.20;;;23.90;55.20;;;;;;4951922;28;20442;-72
2022/08/27 11:27:33;;;;;;;3.63;3.30;;;23.90;55.20;;;;;;4957572;28;20469;-72
2022/08/27 11:30:06;;;;;;;6.20;3.50;;;23.90;55.60;;;;;;4962139;28;20955;-73
2022/08/27 11:32:45;;;;;;;5.77;4.20;;;23.90;55.40;;;;;;4975576;28;20561;-72
2022/08/27 11:35:21;;;;;;;3.90;3.50;;;23.90;55.40;;;;;;4972016;28;21020;-70
2022/08/27 11:38:20;;;;;;;6.50;3.90;;;23.90;55.20;;;;;;4971261;28;20454;-70
2022/08/27 11:40:59;;;;;;;7.43;4.20;;;23.90;55.30;;;;;;4956281;28;20525;-70
2022/08/27 11:43:33;;;;;;;4.20;3.50;;;23.80;55.20;;;;;;4982537;28;21004;-70
2022/08/27 11:46:04;;;;;;;7.87;3.97;;;23.80;55.20;;;;;;4957879;28;20486;-72
2022/08/27 11:48:36;;;;;;;5.30;3.53;;;23.80;55.10;;;;;;4968194;28;20868;-72
2022/08/27 11:51:08;;;;;;;4.20;3.47;;;23.80;56.00;;;;;;4964446;28;20538;-70
2022/08/27 11:53:39;;;;;;;3.77;3.13;;;23.80;54.90;;;;;;4968019;28;20513;-70
2022/08/27 11:56:39;;;;;;;6.10;3.50;;;23.80;55.30;;;;;;4955461;28;20457;-71
2022/08/27 11:59:31;;;;;;;9.83;3.80;;;23.80;55.00;;;;;;4947481;28;20478;-67
2022/08/27 12:02:12;;;;;;;12.50;3.63;;;23.70;55.50;;;;;;4976800;28;20482;-67
2022/08/27 12:04:42;;;;;;;6.17;3.67;;;23.70;55.60;;;;;;4952642;28;20522;-70
2022/08/27 12:07:28;;;;;;;5.17;3.40;;;23.70;55.40;;;;;;4975855;28;20439;-71
2022/08/27 12:10:15;;;;;;;4.57;3.47;;;23.70;55.50;;;;;;4955763;28;20449;-70
2022/08/27 12:13:01;;;;;;;7.63;3.60;;;23.70;55.50;;;;;;4951556;28;20878;-70
2022/08/27 12:15:50;;;;;;;6.50;2.80;;;23.70;55.40;;;;;;4955234;28;20447;-71
2022/08/27 12:18:40;;;;;;;4.47;3.30;;;23.70;55.50;;;;;;4955279;28;20494;-69
2022/08/27 12:21:19;;;;;;;4.57;3.00;;;23.70;55.40;;;;;;4979737;28;20486;-69
2022/08/27 12:24:10;;;;;;;5.23;2.70;;;23.70;55.40;;;;;;4953647;28;20463;-70
2022/08/27 12:26:40;;;;;;;3.50;2.80;;;23.70;55.30;;;;;;4959629;28;20449;-70
2022/08/27 12:29:23;;;;;;;5.03;4.13;;;23.70;55.20;;;;;;4969399;28;20938;-69
2022/08/27 12:32:10;;;;;;;5.60;3.50;;;23.70;55.20;;;;;;4970925;28;20889;-70
2022/08/27 12:34:44;;;;;;;4.60;3.30;;;23.70;55.00;;;;;;4954097;28;20518;-70
2022/08/27 12:37:13;;;;;;;5.70;2.83;;;23.70;55.00;;;;;;4973156;28;20618;-70
2022/08/27 12:39:48;;;;;;;5.60;3.87;;;23.70;54.90;;;;;;4954125;28;20445;-70
2022/08/27 12:42:20;;;;;;;3.43;3.13;;;23.70;54.90;;;;;;4970896;28;21047;-70
2022/08/27 12:44:54;;;;;;;4.97;3.53;;;23.70;55.10;;;;;;4952952;28;20450;-72
2022/08/27 12:47:24;;;;;;;5.70;3.50;;;23.70;55.20;;;;;;4955547;28;20503;-72
2022/08/27 12:49:56;;;;;;;5.30;3.17;;;23.70;55.20;;;;;;4969221;28;20977;-72
2022/08/27 12:53:03;;;;;;;7.80;4.10;;;23.70;55.10;;;;;;4965143;28;20482;-73
2022/08/27 12:55:40;;;;;;;3.80;3.00;;;23.70;55.00;;;;;;4955665;28;20481;-72
2022/08/27 12:58:18;;;;;;;3.57;2.90;;;23.70;54.80;;;;;;4947238;28;20482;-73
2022/08/27 13:01:07;;;;;;;4.53;2.97;;;23.70;54.80;;;;;;4957159;28;20449;-72
2022/08/27 13:03:40;;;;;;;4.07;3.30;;;23.70;54.70;;;;;;4955416;28;20541;-73
2022/08/27 13:06:18;;;;;;;3.70;3.10;;;23.70;54.60;;;;;;4975237;28;21085;-72
2022/08/27 13:08:53;;;;;;;4.27;2.60;;;23.70;54.50;;;;;;4954509;28;20470;-72
2022/08/27 13:11:25;;;;;;;4.83;3.37;;;23.70;54.50;;;;;;4982859;28;20438;-70
2022/08/27 13:14:06;;;;;;;4.00;3.03;;;23.70;54.50;;;;;;4950881;28;20459;-70
2022/08/27 13:16:36;;;;;;;4.20;3.27;;;23.70;54.40;;;;;;4992654;28;20516;-70
2022/08/27 13:19:17;;;;;;;6.07;2.83;;;23.70;54.20;;;;;;4974144;28;20967;-69
2022/08/27 13:21:48;;;;;;;3.70;3.20;;;23.70;54.00;;;;;;4957462;28;21011;-70
2022/08/27 13:24:21;;;;;;;4.30;2.80;;;23.70;53.90;;;;;;4953004;28;20470;-70
2022/08/27 13:26:53;;;;;;;5.13;3.00;;;23.70;54.00;;;;;;4951322;28;20940;-70
2022/08/27 13:29:22;;;;;;;3.30;2.10;;;23.70;54.00;;;;;;4980545;28;21032;-70